Norwegian Breakaway — C6ZJ3 — position and weather

sailwx.info

Track history (hours):
 
Tides and Currents Weather Stations Pressure Air Temp Water Temp Dewpoint Dewpoint Depression Visibility Wind Speed Wind Dir Waves Ship Positions

Norwegian Breakaway

Last reported at 2018-Feb-26 01:00 UTC. Time now 2018-Feb-26 01:14 UTC.
Position N 39°51' W 073°50'.

Length 325 m; draft 8.6 m.

Type: Ship. MMSI: 311050800.

Date/timePositionNaut miles runAvg speedWind from/ knotsBaromVisibWave heightAir tempDewpointWater temp
2018-Feb-26 01:00N 39°51' W 073°50'3213.6
2018-Feb-25 22:39N 40°23' W 073°49'3 9.8
2018-Feb-25 22:21N 40°26' W 073°50'3 9.3
2018-Feb-25 22:00N 40°28' W 073°53'612.2
2018-Feb-25 21:29N 40°31' W 074°00'816.6
2018-Feb-25 21:00N 40°39' W 074°03'612.5
2018-Feb-25 20:30N 40°45' W 074°01'1 2.3
2018-Feb-25 20:00N 40°46' W 073°60'0 0.0
2018-Feb-25 19:30N 40°46' W 073°60'0 0.0
2018-Feb-25 19:00N 40°46' W 073°60'0 0.0
2018-Feb-25 18:30N 40°46' W 073°60'0 0.0
2018-Feb-25 18:00N 40°46' W 073°60'0 0.0
2018-Feb-25 17:30N 40°46' W 073°60'0 0.0
2018-Feb-25 17:00N 40°46' W 073°60'0 0.0
2018-Feb-25 16:27N 40°46' W 073°60'0 0.0
2018-Feb-25 16:00N 40°46' W 073°60'0 0.0
2018-Feb-25 15:30N 40°46' W 073°60'0 0.0
2018-Feb-25 15:00N 40°46' W 073°60'0 0.0
2018-Feb-25 14:30N 40°46' W 073°60'0 0.0
2018-Feb-25 14:00N 40°46' W 073°60'0 0.0
2018-Feb-25 13:27N 40°46' W 073°60'0 0.0
2018-Feb-25 12:56N 40°46' W 073°60'0 0.0
2018-Feb-25 12:29N 40°46' W 073°60'0 0.0
2018-Feb-25 12:00N 40°46' W 073°60'1 1.2
2018-Feb-25 11:29N 40°46' W 074°01'4 9.1
2018-Feb-25 11:00N 40°41' W 074°02'713.4
2018-Feb-25 10:30N 40°35' W 074°02'714.2
2018-Feb-25 10:00N 40°30' W 073°56'5 9.5
2018-Feb-25 09:29N 40°28' W 073°50'4 7.7
2018-Feb-25 09:00N 40°24' W 073°47'5 9.0
2018-Feb-25 08:30N 40°20' W 073°46'5 9.2
2018-Feb-25 08:00N 40°15' W 073°46'2010.5
2018-Feb-25 06:04N 39°55' W 073°43'112.2
2018-Feb-25 06:00N 39°54' W 073°43'811.9
2018-Feb-25 05:21N 39°47' W 073°42'411.5
2018-Feb-25 05:00N 39°43' W 073°43'910.8
2018-Feb-25 04:11N 39°34' W 073°45'211.0
2018-Feb-25 03:59N 39°32' W 073°45'610.8
2018-Feb-25 03:28N 39°26' W 073°47'610.6
2018-Feb-25 02:54N 39°21' W 073°48'1813.6
2018-Feb-25 01:35N 39°03' W 073°53'214.2
2018-Feb-25 01:28N 39°01' W 073°53'714.1
2018-Feb-25 00:59N 38°55' W 073°55'714.1
2018-Feb-25 00:29N 38°48' W 073°57'81155.9
2018-Feb-24 10:00N 25°18' W 074°42'49370.4 260 / 301024.210.8 21.0 25.0
2018-Feb-24 03:00N 33°30' W 075°12'7414.7 180 / 141028.810.8 20.0 20.0
2018-Feb-23 22:00N 32°18' W 075°30'23819.8 180 / 101029.810.8 24.0 24.0
2018-Feb-23 10:00N 28°24' W 076°18'191 3.7 090 / 331029.0 22.0 23.0
2018-Feb-21 06:00N 26°18' W 079°00'2010.1 110 / 281027.9 5.4 23.0 25.0
2018-Feb-21 04:00N 26°06' W 079°18'1610.6 110 / 301027.110.8 24.0 28.0
2018-Feb-21 02:28N 26°02' W 079°35'610.8
2018-Feb-21 01:55N 25°59' W 079°41'411.1
2018-Feb-21 01:30N 25°57' W 079°45'611.5
2018-Feb-21 01:00N 25°54' W 079°51'611.9
2018-Feb-21 00:30N 25°51' W 079°57'611.9
2018-Feb-21 00:00N 25°48' W 080°02'510.5
2018-Feb-20 23:30N 25°46' W 080°08'2 4.4
2018-Feb-20 23:00N 25°46' W 080°10'0 0.0
2018-Feb-20 22:29N 25°46' W 080°10'0 0.0
2018-Feb-20 21:59N 25°46' W 080°10'0 0.0
2018-Feb-20 21:30N 25°46' W 080°10'0 0.0
2018-Feb-20 20:58N 25°46' W 080°10'0 0.0
2018-Feb-20 20:28N 25°46' W 080°10'0 0.0
2018-Feb-20 19:55N 25°46' W 080°10'0 0.0
2018-Feb-20 19:28N 25°46' W 080°10'0 0.0
2018-Feb-20 18:58N 25°46' W 080°10'0 0.0
2018-Feb-20 18:28N 25°46' W 080°10'0 0.0
2018-Feb-20 17:58N 25°46' W 080°10'0 0.0
2018-Feb-20 17:28N 25°46' W 080°10'0 0.0
2018-Feb-20 16:58N 25°46' W 080°10'0 0.0
2018-Feb-20 16:28N 25°46' W 080°10'0 0.0
2018-Feb-20 15:58N 25°46' W 080°10'0 0.0
2018-Feb-20 15:28N 25°46' W 080°10'0 0.0
2018-Feb-20 14:58N 25°46' W 080°10'1 1.3
2018-Feb-20 14:30N 25°47' W 080°10'0 0.9
2018-Feb-20 14:00N 25°47' W 080°10'4 8.9
2018-Feb-20 13:30N 25°46' W 080°05'4 7.9
2018-Feb-20 13:00N 25°47' W 080°01'4 8.0
2018-Feb-20 12:30N 25°49' W 079°57'611.9
2018-Feb-20 12:00N 25°52' W 079°51'815.8
2018-Feb-20 11:30N 25°60' W 079°50'917.7
2018-Feb-20 11:00N 26°08' W 079°49'917.9
2018-Feb-20 10:30N 26°17' W 079°46'917.7
2018-Feb-20 10:00N 26°26' W 079°47'2118.0
2018-Feb-20 08:50N 26°47' W 079°47'717.6
2018-Feb-20 08:26N 26°54' W 079°47'717.3
2018-Feb-20 08:01N 27°01' W 079°50'145 5.0
2018-Feb-19 03:00N 29°24' W 079°24'11813.1 130 / 201025.810.8 23.0 23.0
2018-Feb-18 18:00N 31°12' W 078°30'11414.2 320 / 121024.510.8 25.0 25.0
2018-Feb-18 10:00N 32°54' W 077°30'13617.0 230 / 331020.110.8 22.0 22.0
2018-Feb-18 02:00N 34°36' W 075°42'5313.3 250 / 251018.010.8 22.0 12.0
2018-Feb-17 22:00N 35°12' W 074°54'17714.8 170 / 321019.7 5.4 19.0 24.0
2018-Feb-17 10:00N 38°06' W 074°12'8416.1 020 / 191026.810.8 5.0 8.0
2018-Feb-17 04:46N 39°29' W 073°54'916.2
2018-Feb-17 04:14N 39°37' W 073°52'715.8
2018-Feb-17 03:49N 39°44' W 073°51'815.8
2018-Feb-17 03:20N 39°52' W 073°51'3012.6
2018-Feb-17 00:55N 40°22' W 073°49'5 9.5
2018-Feb-17 00:27N 40°26' W 073°50'4 9.7
2018-Feb-17 00:00N 40°29' W 073°54'712.9
2018-Feb-16 23:30N 40°32' W 074°01'815.7
2018-Feb-16 23:00N 40°40' W 074°03'612.2
2018-Feb-16 22:30N 40°46' W 074°00'0 0.8
2018-Feb-16 21:59N 40°46' W 073°60'0 0.0
2018-Feb-16 21:26N 40°46' W 073°60'0 0.0
2018-Feb-16 20:56N 40°46' W 073°60'0 0.0
2018-Feb-16 20:29N 40°46' W 073°60'0 0.0
2018-Feb-16 19:59N 40°46' W 073°60'0 0.0
2018-Feb-16 19:29N 40°46' W 073°60'0 0.0
2018-Feb-16 18:59N 40°46' W 073°60'0 0.0
2018-Feb-16 18:29N 40°46' W 073°60'0 0.0
2018-Feb-16 17:59N 40°46' W 073°60'0 0.0
2018-Feb-16 17:29N 40°46' W 073°60'0 0.0
2018-Feb-16 16:59N 40°46' W 073°60'0 0.0
2018-Feb-16 16:23N 40°46' W 073°60'0 0.0
2018-Feb-16 15:59N 40°46' W 073°60'0 0.0
2018-Feb-16 15:29N 40°46' W 073°60'0 0.0
2018-Feb-16 14:59N 40°46' W 073°60'0 0.0
2018-Feb-16 14:29N 40°46' W 073°60'0 0.0
2018-Feb-16 13:59N 40°46' W 073°60'0 0.0
2018-Feb-16 13:29N 40°46' W 073°60'0 0.0
2018-Feb-16 12:59N 40°46' W 073°60'0 0.0
2018-Feb-16 12:29N 40°46' W 073°60'0 0.0
2018-Feb-16 12:00N 40°46' W 073°60'0 0.5
2018-Feb-16 11:30N 40°46' W 074°00'4 7.2
2018-Feb-16 11:00N 40°43' W 074°01'713.4
2018-Feb-16 10:31N 40°36' W 074°03'815.9
2018-Feb-16 10:00N 40°30' W 073°56'5 9.6
2018-Feb-16 09:30N 40°28' W 073°50'3 6.4
2018-Feb-16 08:57N 40°25' W 073°47'3 7.4
2018-Feb-16 08:30N 40°22' W 073°47'5 9.1
2018-Feb-16 07:58N 40°17' W 073°46'  
Track history (hours):
 
Tides and Currents Weather Stations Pressure Air Temp Water Temp Dewpoint Dewpoint Depression Visibility Wind Speed Wind Dir Waves Ship Positions

Norwegian Breakaway

Last reported at 2018-Feb-26 01:00 UTC. Time now 2018-Feb-26 01:14 UTC.
Position N 39°51' W 073°50'.

Length 325 m; draft 8.6 m.

Type: Ship. MMSI: 311050800.

Date/timePositionNaut miles runAvg speedWind from/ knotsBaromVisibWave heightAir tempDewpointWater temp
2018-Feb-26 01:00N 39°51' W 073°50'3213.6
2018-Feb-25 22:39N 40°23' W 073°49'3 9.8
2018-Feb-25 22:21N 40°26' W 073°50'3 9.3
2018-Feb-25 22:00N 40°28' W 073°53'612.2
2018-Feb-25 21:29N 40°31' W 074°00'816.6
2018-Feb-25 21:00N 40°39' W 074°03'612.5
2018-Feb-25 20:30N 40°45' W 074°01'1 2.3
2018-Feb-25 20:00N 40°46' W 073°60'0 0.0
2018-Feb-25 19:30N 40°46' W 073°60'0 0.0
2018-Feb-25 19:00N 40°46' W 073°60'0 0.0
2018-Feb-25 18:30N 40°46' W 073°60'0 0.0
2018-Feb-25 18:00N 40°46' W 073°60'0 0.0
2018-Feb-25 17:30N 40°46' W 073°60'0 0.0
2018-Feb-25 17:00N 40°46' W 073°60'0 0.0
2018-Feb-25 16:27N 40°46' W 073°60'0 0.0
2018-Feb-25 16:00N 40°46' W 073°60'0 0.0
2018-Feb-25 15:30N 40°46' W 073°60'0 0.0
2018-Feb-25 15:00N 40°46' W 073°60'0 0.0
2018-Feb-25 14:30N 40°46' W 073°60'0 0.0
2018-Feb-25 14:00N 40°46' W 073°60'0 0.0
2018-Feb-25 13:27N 40°46' W 073°60'0 0.0
2018-Feb-25 12:56N 40°46' W 073°60'0 0.0
2018-Feb-25 12:29N 40°46' W 073°60'0 0.0
2018-Feb-25 12:00N 40°46' W 073°60'1 1.2
2018-Feb-25 11:29N 40°46' W 074°01'4 9.1
2018-Feb-25 11:00N 40°41' W 074°02'713.4
2018-Feb-25 10:30N 40°35' W 074°02'714.2
2018-Feb-25 10:00N 40°30' W 073°56'5 9.5
2018-Feb-25 09:29N 40°28' W 073°50'4 7.7
2018-Feb-25 09:00N 40°24' W 073°47'5 9.0
2018-Feb-25 08:30N 40°20' W 073°46'5 9.2
2018-Feb-25 08:00N 40°15' W 073°46'2010.5
2018-Feb-25 06:04N 39°55' W 073°43'112.2
2018-Feb-25 06:00N 39°54' W 073°43'811.9
2018-Feb-25 05:21N 39°47' W 073°42'411.5
2018-Feb-25 05:00N 39°43' W 073°43'910.8
2018-Feb-25 04:11N 39°34' W 073°45'211.0
2018-Feb-25 03:59N 39°32' W 073°45'610.8
2018-Feb-25 03:28N 39°26' W 073°47'610.6
2018-Feb-25 02:54N 39°21' W 073°48'1813.6
2018-Feb-25 01:35N 39°03' W 073°53'214.2
2018-Feb-25 01:28N 39°01' W 073°53'714.1
2018-Feb-25 00:59N 38°55' W 073°55'714.1
2018-Feb-25 00:29N 38°48' W 073°57'81155.9
2018-Feb-24 10:00N 25°18' W 074°42'49370.4 260 / 301024.210.8 21.0 25.0
2018-Feb-24 03:00N 33°30' W 075°12'7414.7 180 / 141028.810.8 20.0 20.0
2018-Feb-23 22:00N 32°18' W 075°30'23819.8 180 / 101029.810.8 24.0 24.0
2018-Feb-23 10:00N 28°24' W 076°18'191 3.7 090 / 331029.0 22.0 23.0
2018-Feb-21 06:00N 26°18' W 079°00'2010.1 110 / 281027.9 5.4 23.0 25.0
2018-Feb-21 04:00N 26°06' W 079°18'1610.6 110 / 301027.110.8 24.0 28.0
2018-Feb-21 02:28N 26°02' W 079°35'610.8
2018-Feb-21 01:55N 25°59' W 079°41'411.1
2018-Feb-21 01:30N 25°57' W 079°45'611.5
2018-Feb-21 01:00N 25°54' W 079°51'611.9
2018-Feb-21 00:30N 25°51' W 079°57'611.9
2018-Feb-21 00:00N 25°48' W 080°02'510.5
2018-Feb-20 23:30N 25°46' W 080°08'2 4.4
2018-Feb-20 23:00N 25°46' W 080°10'0 0.0
2018-Feb-20 22:29N 25°46' W 080°10'0 0.0
2018-Feb-20 21:59N 25°46' W 080°10'0 0.0
2018-Feb-20 21:30N 25°46' W 080°10'0 0.0
2018-Feb-20 20:58N 25°46' W 080°10'0 0.0
2018-Feb-20 20:28N 25°46' W 080°10'0 0.0
2018-Feb-20 19:55N 25°46' W 080°10'0 0.0
2018-Feb-20 19:28N 25°46' W 080°10'0 0.0
2018-Feb-20 18:58N 25°46' W 080°10'0 0.0
2018-Feb-20 18:28N 25°46' W 080°10'0 0.0
2018-Feb-20 17:58N 25°46' W 080°10'0 0.0
2018-Feb-20 17:28N 25°46' W 080°10'0 0.0
2018-Feb-20 16:58N 25°46' W 080°10'0 0.0
2018-Feb-20 16:28N 25°46' W 080°10'0 0.0
2018-Feb-20 15:58N 25°46' W 080°10'0 0.0
2018-Feb-20 15:28N 25°46' W 080°10'0 0.0
2018-Feb-20 14:58N 25°46' W 080°10'1 1.3
2018-Feb-20 14:30N 25°47' W 080°10'0 0.9
2018-Feb-20 14:00N 25°47' W 080°10'4 8.9
2018-Feb-20 13:30N 25°46' W 080°05'4 7.9
2018-Feb-20 13:00N 25°47' W 080°01'4 8.0
2018-Feb-20 12:30N 25°49' W 079°57'611.9
2018-Feb-20 12:00N 25°52' W 079°51'815.8
2018-Feb-20 11:30N 25°60' W 079°50'917.7
2018-Feb-20 11:00N 26°08' W 079°49'917.9
2018-Feb-20 10:30N 26°17' W 079°46'917.7
2018-Feb-20 10:00N 26°26' W 079°47'2118.0
2018-Feb-20 08:50N 26°47' W 079°47'717.6
2018-Feb-20 08:26N 26°54' W 079°47'717.3
2018-Feb-20 08:01N 27°01' W 079°50'145 5.0
2018-Feb-19 03:00N 29°24' W 079°24'11813.1 130 / 201025.810.8 23.0 23.0
2018-Feb-18 18:00N 31°12' W 078°30'11414.2 320 / 121024.510.8 25.0 25.0
2018-Feb-18 10:00N 32°54' W 077°30'13617.0 230 / 331020.110.8 22.0 22.0
2018-Feb-18 02:00N 34°36' W 075°42'5313.3 250 / 251018.010.8 22.0 12.0
2018-Feb-17 22:00N 35°12' W 074°54'17714.8 170 / 321019.7 5.4 19.0 24.0
2018-Feb-17 10:00N 38°06' W 074°12'8416.1 020 / 191026.810.8 5.0 8.0
2018-Feb-17 04:46N 39°29' W 073°54'916.2
2018-Feb-17 04:14N 39°37' W 073°52'715.8
2018-Feb-17 03:49N 39°44' W 073°51'815.8
2018-Feb-17 03:20N 39°52' W 073°51'3012.6
2018-Feb-17 00:55N 40°22' W 073°49'5 9.5
2018-Feb-17 00:27N 40°26' W 073°50'4 9.7
2018-Feb-17 00:00N 40°29' W 073°54'712.9
2018-Feb-16 23:30N 40°32' W 074°01'815.7
2018-Feb-16 23:00N 40°40' W 074°03'612.2
2018-Feb-16 22:30N 40°46' W 074°00'0 0.8
2018-Feb-16 21:59N 40°46' W 073°60'0 0.0
2018-Feb-16 21:26N 40°46' W 073°60'0 0.0
2018-Feb-16 20:56N 40°46' W 073°60'0 0.0
2018-Feb-16 20:29N 40°46' W 073°60'0 0.0
2018-Feb-16 19:59N 40°46' W 073°60'0 0.0
2018-Feb-16 19:29N 40°46' W 073°60'0 0.0
2018-Feb-16 18:59N 40°46' W 073°60'0 0.0
2018-Feb-16 18:29N 40°46' W 073°60'0 0.0
2018-Feb-16 17:59N 40°46' W 073°60'0 0.0
2018-Feb-16 17:29N 40°46' W 073°60'0 0.0
2018-Feb-16 16:59N 40°46' W 073°60'0 0.0
2018-Feb-16 16:23N 40°46' W 073°60'0 0.0
2018-Feb-16 15:59N 40°46' W 073°60'0 0.0
2018-Feb-16 15:29N 40°46' W 073°60'0 0.0
2018-Feb-16 14:59N 40°46' W 073°60'0 0.0
2018-Feb-16 14:29N 40°46' W 073°60'0 0.0
2018-Feb-16 13:59N 40°46' W 073°60'0 0.0
2018-Feb-16 13:29N 40°46' W 073°60'0 0.0
2018-Feb-16 12:59N 40°46' W 073°60'0 0.0
2018-Feb-16 12:29N 40°46' W 073°60'0 0.0
2018-Feb-16 12:00N 40°46' W 073°60'0 0.5
2018-Feb-16 11:30N 40°46' W 074°00'4 7.2
2018-Feb-16 11:00N 40°43' W 074°01'713.4
2018-Feb-16 10:31N 40°36' W 074°03'815.9
2018-Feb-16 10:00N 40°30' W 073°56'5 9.6
2018-Feb-16 09:30N 40°28' W 073°50'3 6.4
2018-Feb-16 08:57N 40°25' W 073°47'3 7.4
2018-Feb-16 08:30N 40°22' W 073°47'5 9.1
2018-Feb-16 07:58N 40°17' W 073°46'  

Dump ship's entire track history